createdAt,value
2022-08-03T00:01:54.749Z,21.10
2022-08-03T00:04:34.120Z,21.00
2022-08-03T00:07:02.186Z,20.90
2022-08-03T00:09:35.516Z,20.80
2022-08-03T00:12:03.840Z,20.80
2022-08-03T00:14:32.987Z,20.70
2022-08-03T00:17:00.773Z,20.70
2022-08-03T00:19:28.870Z,20.70
2022-08-03T00:21:57.805Z,20.70
2022-08-03T00:24:25.592Z,20.70
2022-08-03T00:26:53.417Z,20.60
2022-08-03T00:29:21.163Z,20.60
2022-08-03T00:31:59.527Z,20.60
2022-08-03T00:34:36.606Z,20.50
2022-08-03T00:37:16.577Z,20.50
2022-08-03T00:39:46.176Z,20.50
2022-08-03T00:42:14.620Z,20.40
2022-08-03T00:44:45.261Z,20.40
2022-08-03T00:47:14.606Z,20.40
2022-08-03T00:49:43.021Z,20.40
2022-08-03T00:52:11.916Z,20.40
2022-08-03T00:54:42.944Z,20.40
2022-08-03T00:57:10.932Z,20.40
2022-08-03T00:59:39.815Z,20.30
2022-08-03T01:02:07.720Z,20.40
2022-08-03T01:04:36.803Z,20.30
2022-08-03T01:07:13.709Z,20.30
2022-08-03T01:09:47.432Z,20.30
2022-08-03T01:12:23.338Z,20.30
2022-08-03T01:14:56.948Z,20.20
2022-08-03T01:17:30.108Z,20.20
2022-08-03T01:20:07.363Z,20.20
2022-08-03T01:23:02.155Z,20.20
2022-08-03T01:26:01.293Z,20.10
2022-08-03T01:28:49.226Z,20.10
2022-08-03T01:31:24.769Z,20.10
2022-08-03T01:33:58.474Z,20.00
2022-08-03T01:36:33.813Z,20.00
2022-08-03T01:39:03.707Z,20.00
2022-08-03T01:41:34.408Z,20.00
2022-08-03T01:44:29.336Z,20.00
2022-08-03T01:46:55.287Z,20.00
2022-08-03T01:49:25.386Z,20.00
2022-08-03T01:52:02.884Z,19.90
2022-08-03T01:54:33.943Z,20.00
2022-08-03T01:57:02.328Z,20.00
2022-08-03T01:59:31.433Z,20.10
2022-08-03T02:02:28.537Z,20.10
2022-08-03T02:04:53.465Z,20.20
2022-08-03T02:07:21.894Z,20.20
2022-08-03T02:09:53.332Z,20.20
2022-08-03T02:12:24.559Z,20.20
2022-08-03T02:14:53.657Z,20.10
2022-08-03T02:17:39.386Z,20.10
2022-08-03T02:20:09.431Z,20.10
2022-08-03T02:22:40.754Z,20.10
2022-08-03T02:25:11.274Z,20.00
2022-08-03T02:27:44.331Z,20.00
2022-08-03T02:30:14.560Z,20.00
2022-08-03T02:32:51.437Z,20.00
2022-08-03T02:35:21.366Z,20.00
2022-08-03T02:37:54.465Z,20.00
2022-08-03T02:40:24.878Z,19.90
2022-08-03T02:42:56.531Z,19.90
2022-08-03T02:45:27.264Z,19.80
2022-08-03T02:48:00.770Z,19.80
2022-08-03T02:50:30.485Z,19.80
2022-08-03T02:52:59.791Z,19.70
2022-08-03T02:55:29.371Z,19.70
2022-08-03T02:58:01.314Z,19.70
2022-08-03T03:00:30.465Z,19.60
2022-08-03T03:03:02.466Z,19.60
2022-08-03T03:05:52.491Z,19.60
2022-08-03T03:08:26.096Z,19.60
2022-08-03T03:10:56.768Z,19.60
2022-08-03T03:13:25.551Z,19.60
2022-08-03T03:15:55.402Z,19.60
2022-08-03T03:18:26.019Z,19.60
2022-08-03T03:20:55.062Z,19.60
2022-08-03T03:23:24.814Z,19.60
2022-08-03T03:25:53.802Z,19.60
2022-08-03T03:28:21.815Z,19.60
2022-08-03T03:30:53.178Z,19.60
2022-08-03T03:33:21.593Z,19.60
2022-08-03T03:35:51.648Z,19.60
2022-08-03T03:38:19.748Z,19.60
2022-08-03T03:40:48.124Z,19.60
2022-08-03T03:43:18.399Z,19.50
2022-08-03T03:45:48.066Z,19.50
2022-08-03T03:48:16.217Z,19.50
2022-08-03T03:50:45.010Z,19.50
2022-08-03T03:53:15.868Z,19.40
2022-08-03T03:55:59.616Z,19.40
2022-08-03T03:58:31.739Z,19.40
2022-08-03T04:00:59.779Z,19.40
2022-08-03T04:03:29.430Z,19.40
2022-08-03T04:06:15.318Z,19.40
2022-08-03T04:09:13.589Z,19.40
2022-08-03T04:11:46.781Z,19.50
2022-08-03T04:14:17.845Z,19.50
2022-08-03T04:16:51.077Z,19.50
2022-08-03T04:19:23.649Z,19.50
2022-08-03T04:21:53.805Z,19.50
2022-08-03T04:24:30.170Z,19.60
2022-08-03T04:27:00.180Z,19.60
2022-08-03T04:29:32.037Z,19.60
2022-08-03T04:32:03.054Z,19.60
2022-08-03T04:34:31.374Z,19.60
2022-08-03T04:37:03.545Z,19.60
2022-08-03T04:39:34.098Z,19.60
2022-08-03T04:42:08.149Z,19.70
2022-08-03T04:44:40.641Z,19.60
2022-08-03T04:47:08.982Z,19.60
2022-08-03T04:49:37.923Z,19.70
2022-08-03T04:52:09.934Z,19.70
2022-08-03T04:54:42.797Z,19.70
2022-08-03T04:57:22.114Z,19.80
2022-08-03T05:00:02.199Z,19.80
2022-08-03T05:02:32.335Z,19.90
2022-08-03T05:05:00.862Z,19.90
2022-08-03T05:07:35.751Z,19.90
2022-08-03T05:10:11.702Z,20.00
2022-08-03T05:12:43.342Z,20.10
2022-08-03T05:15:12.479Z,20.10
2022-08-03T05:17:40.253Z,20.20
2022-08-03T05:20:10.498Z,20.30
2022-08-03T05:22:38.287Z,20.30
2022-08-03T05:25:08.425Z,20.40
2022-08-03T05:27:36.443Z,20.50
2022-08-03T05:30:30.788Z,20.50
2022-08-03T05:32:53.610Z,20.60
2022-08-03T05:35:57.265Z,20.70
2022-08-03T05:38:09.374Z,20.80
2022-08-03T05:40:38.468Z,20.90
2022-08-03T05:43:07.309Z,21.00
2022-08-03T05:45:35.156Z,21.00
2022-08-03T05:48:02.902Z,21.10
2022-08-03T05:50:30.911Z,21.20
2022-08-03T05:52:58.750Z,21.30
2022-08-03T05:55:26.638Z,21.30
2022-08-03T05:57:56.805Z,21.40
2022-08-03T06:00:25.807Z,21.50
2022-08-03T06:02:58.161Z,21.60
2022-08-03T06:05:28.229Z,21.70
2022-08-03T06:07:56.046Z,21.80
2022-08-03T06:10:36.814Z,21.90
2022-08-03T06:13:07.282Z,22.00
2022-08-03T06:15:35.469Z,22.10
2022-08-03T06:18:03.505Z,22.20
2022-08-03T06:20:31.462Z,22.20
2022-08-03T06:23:01.157Z,22.30
2022-08-03T06:25:29.386Z,22.40
2022-08-03T06:27:57.381Z,22.50
2022-08-03T06:30:26.579Z,22.60
2022-08-03T06:32:54.828Z,22.70
2022-08-03T06:35:24.711Z,22.70
2022-08-03T06:37:52.689Z,22.80
2022-08-03T06:40:28.577Z,23.00
2022-08-03T06:42:56.522Z,23.00
2022-08-03T06:45:25.653Z,23.10
2022-08-03T06:48:04.822Z,23.10
2022-08-03T06:50:33.369Z,23.20
2022-08-03T06:53:01.512Z,23.30
2022-08-03T06:55:29.821Z,23.30
2022-08-03T06:58:00.126Z,23.40
2022-08-03T07:00:32.904Z,23.40
2022-08-03T07:03:00.789Z,23.50
2022-08-03T07:05:28.833Z,23.60
2022-08-03T07:07:59.156Z,23.60
2022-08-03T07:10:27.657Z,23.70
2022-08-03T07:12:56.917Z,23.80
2022-08-03T07:15:38.439Z,23.80
2022-08-03T07:18:14.210Z,23.90
2022-08-03T07:20:42.895Z,23.90
2022-08-03T07:23:16.117Z,24.00
2022-08-03T07:25:47.589Z,24.10
2022-08-03T07:28:15.431Z,24.10
2022-08-03T07:30:43.239Z,24.30
2022-08-03T07:33:11.187Z,24.30
2022-08-03T07:35:40.406Z,24.40
2022-08-03T07:38:08.187Z,24.50
2022-08-03T07:40:35.999Z,24.50
2022-08-03T07:43:04.957Z,24.50
2022-08-03T07:45:33.301Z,24.60
2022-08-03T07:48:01.262Z,24.70
2022-08-03T07:50:29.109Z,24.70
2022-08-03T07:52:59.670Z,24.80
2022-08-03T07:55:28.728Z,24.90
2022-08-03T07:58:04.963Z,25.00
2022-08-03T08:00:35.232Z,25.10
2022-08-03T08:03:03.039Z,25.20
2022-08-03T08:05:31.452Z,25.30
2022-08-03T08:08:01.105Z,25.20
2022-08-03T08:10:29.272Z,25.20
2022-08-03T08:12:57.631Z,25.30
2022-08-03T08:15:25.692Z,25.30
2022-08-03T08:17:55.117Z,25.30
2022-08-03T08:20:30.495Z,25.40
2022-08-03T08:23:02.688Z,25.50
2022-08-03T08:25:33.818Z,25.50
2022-08-03T08:28:29.830Z,25.60
2022-08-03T08:30:51.522Z,25.70
2022-08-03T08:33:23.222Z,25.70
2022-08-03T08:35:53.945Z,25.70
2022-08-03T08:38:23.374Z,25.70
2022-08-03T08:40:51.668Z,25.70
2022-08-03T08:43:19.457Z,25.80
2022-08-03T08:45:50.036Z,25.90
2022-08-03T08:48:22.866Z,25.90
2022-08-03T08:50:54.170Z,26.00
2022-08-03T08:53:32.282Z,26.00
2022-08-03T08:56:01.603Z,26.10
2022-08-03T08:58:35.058Z,26.20
2022-08-03T09:01:03.064Z,26.20
2022-08-03T09:03:31.242Z,26.30
2022-08-03T09:06:02.194Z,26.40
2022-08-03T09:08:37.020Z,26.50
2022-08-03T09:11:07.231Z,26.60
2022-08-03T09:13:37.779Z,26.60
2022-08-03T09:16:13.900Z,26.70
2022-08-03T09:18:42.141Z,26.70
2022-08-03T09:21:32.266Z,26.70
2022-08-03T09:24:06.330Z,26.70
2022-08-03T09:26:36.865Z,26.70
2022-08-03T09:29:14.337Z,26.70
2022-08-03T09:31:44.660Z,26.80
2022-08-03T09:34:14.042Z,26.90
2022-08-03T09:36:48.225Z,27.00
2022-08-03T09:39:18.814Z,27.20
2022-08-03T09:41:48.523Z,27.30
2022-08-03T09:44:25.637Z,27.40
2022-08-03T09:46:55.667Z,27.40
2022-08-03T09:49:24.241Z,27.50
2022-08-03T09:52:38.085Z,27.50
2022-08-03T09:54:43.522Z,27.60
2022-08-03T09:57:23.210Z,27.70
2022-08-03T09:59:55.009Z,27.70
2022-08-03T10:02:36.049Z,27.80
2022-08-03T10:05:04.224Z,27.90
2022-08-03T10:07:46.266Z,28.00
2022-08-03T10:10:31.080Z,28.00
2022-08-03T10:13:01.039Z,28.20
2022-08-03T10:16:21.663Z,28.30
2022-08-03T10:18:21.149Z,28.30
2022-08-03T10:20:53.188Z,28.40
2022-08-03T10:23:22.369Z,28.50
2022-08-03T10:26:00.037Z,28.60
2022-08-03T10:28:35.443Z,28.60
2022-08-03T10:31:07.713Z,28.60
2022-08-03T10:33:50.844Z,28.50
2022-08-03T10:36:23.718Z,28.60
2022-08-03T10:38:57.105Z,28.70
2022-08-03T10:41:33.143Z,28.90
2022-08-03T10:44:06.599Z,28.90
2022-08-03T10:46:37.661Z,29.00
2022-08-03T10:49:10.313Z,29.10
2022-08-03T10:51:38.825Z,29.20
2022-08-03T10:54:06.663Z,29.20
2022-08-03T10:57:04.128Z,29.30
2022-08-03T11:00:04.811Z,29.30
2022-08-03T11:03:08.919Z,29.40
2022-08-03T11:05:42.509Z,29.40
2022-08-03T11:08:31.716Z,29.50
2022-08-03T11:11:01.626Z,29.50
2022-08-03T11:13:34.237Z,29.70
2022-08-03T11:16:07.172Z,29.70
2022-08-03T11:18:36.497Z,29.70
2022-08-03T11:21:04.562Z,29.80
2022-08-03T11:24:05.593Z,29.80
2022-08-03T11:26:33.396Z,29.90
2022-08-03T11:29:28.872Z,30.00
2022-08-03T11:31:56.699Z,30.00
2022-08-03T11:34:25.180Z,30.10
2022-08-03T11:37:29.923Z,30.00
2022-08-03T11:39:59.378Z,30.10
2022-08-03T11:42:48.051Z,30.10
2022-08-03T11:45:19.848Z,30.20
2022-08-03T11:47:51.603Z,30.20
2022-08-03T11:50:21.300Z,30.20
2022-08-03T11:52:50.642Z,30.20
2022-08-03T11:55:21.912Z,30.20
2022-08-03T11:59:11.018Z,30.30
2022-08-03T12:00:40.670Z,30.30
2022-08-03T12:03:11.838Z,30.40
2022-08-03T12:05:51.896Z,30.40
2022-08-03T12:08:33.275Z,30.40
2022-08-03T12:11:03.425Z,30.40
2022-08-03T12:14:44.927Z,30.40
2022-08-03T12:16:30.702Z,30.40
2022-08-03T12:19:02.084Z,30.40
2022-08-03T12:21:31.067Z,30.50
2022-08-03T12:24:01.951Z,30.50
2022-08-03T12:26:31.227Z,30.50
2022-08-03T12:28:59.199Z,30.60
2022-08-03T12:31:27.240Z,30.50
2022-08-03T12:34:04.080Z,30.50
2022-08-03T12:36:33.953Z,30.50
2022-08-03T12:39:05.710Z,30.50
2022-08-03T12:41:36.362Z,30.60
2022-08-03T12:44:04.633Z,30.60
2022-08-03T12:46:35.549Z,30.70
2022-08-03T12:49:09.639Z,30.70
2022-08-03T12:51:39.508Z,30.80
2022-08-03T12:54:07.865Z,30.80
2022-08-03T12:56:36.243Z,30.80
2022-08-03T12:59:25.020Z,30.90
2022-08-03T13:02:00.373Z,30.90
2022-08-03T13:04:33.660Z,31.00
2022-08-03T13:07:03.678Z,31.00
2022-08-03T13:09:46.989Z,31.10
2022-08-03T13:12:16.621Z,31.10
2022-08-03T13:14:46.556Z,31.10
2022-08-03T13:17:16.794Z,31.10
2022-08-03T13:19:47.068Z,31.10
2022-08-03T13:22:16.708Z,31.10
2022-08-03T13:24:46.212Z,31.20
2022-08-03T13:27:59.436Z,31.20
2022-08-03T13:30:03.935Z,31.10
2022-08-03T13:32:33.958Z,30.90
2022-08-03T13:35:03.492Z,30.80
2022-08-03T13:37:32.381Z,30.90
2022-08-03T13:40:02.763Z,30.90
2022-08-03T13:42:32.874Z,31.00
2022-08-03T13:45:02.732Z,31.10
2022-08-03T13:47:30.529Z,31.20
2022-08-03T13:50:01.105Z,31.30
2022-08-03T13:52:32.938Z,31.40
2022-08-03T13:55:01.250Z,31.40
2022-08-03T13:58:11.349Z,31.40
2022-08-03T14:00:29.209Z,31.30
2022-08-03T14:03:05.335Z,31.40
2022-08-03T14:05:35.863Z,31.40
2022-08-03T14:08:06.701Z,31.50
2022-08-03T14:10:36.528Z,31.60
2022-08-03T14:13:04.711Z,31.60
2022-08-03T14:15:37.936Z,31.60
2022-08-03T14:18:06.784Z,31.60
2022-08-03T14:20:38.555Z,31.60
2022-08-03T14:23:16.664Z,31.60
2022-08-03T14:25:52.038Z,31.70
2022-08-03T14:28:23.543Z,31.80
2022-08-03T14:30:51.815Z,31.80
2022-08-03T14:33:19.982Z,31.90
2022-08-03T14:35:48.414Z,31.90
2022-08-03T14:38:18.263Z,31.90
2022-08-03T14:40:46.419Z,31.90
2022-08-03T14:43:14.966Z,31.80
2022-08-03T14:45:42.780Z,31.80
2022-08-03T14:50:32.767Z,31.70
2022-08-03T14:51:00.339Z,31.70
2022-08-03T14:53:30.042Z,31.70
2022-08-03T14:55:57.915Z,31.70
2022-08-03T14:58:26.706Z,31.70
2022-08-03T15:00:55.885Z,31.70
2022-08-03T15:03:25.222Z,31.70
2022-08-03T15:05:53.754Z,31.70
2022-08-03T15:08:23.020Z,31.70
2022-08-03T15:10:52.386Z,31.70
2022-08-03T15:13:20.913Z,31.60
2022-08-03T15:15:50.338Z,31.60
2022-08-03T15:18:18.185Z,31.60
2022-08-03T15:20:47.250Z,31.60
2022-08-03T15:23:16.662Z,31.60
2022-08-03T15:26:02.233Z,31.70
2022-08-03T15:28:34.241Z,31.70
2022-08-03T15:31:05.408Z,31.70
2022-08-03T15:33:33.529Z,31.60
2022-08-03T15:36:03.136Z,31.70
2022-08-03T15:38:31.013Z,31.60
2022-08-03T15:41:00.146Z,31.60
2022-08-03T15:43:30.275Z,31.50
2022-08-03T15:46:28.137Z,31.40
2022-08-03T15:48:47.899Z,31.20
2022-08-03T15:51:16.156Z,31.10
2022-08-03T15:53:44.436Z,31.00
2022-08-03T15:56:16.809Z,31.00
2022-08-03T15:59:09.157Z,30.90
2022-08-03T16:01:36.987Z,31.00
2022-08-03T16:04:05.679Z,31.10
2022-08-03T16:06:35.139Z,31.10
2022-08-03T16:09:05.655Z,31.10
2022-08-03T16:11:52.252Z,31.10
2022-08-03T16:14:32.699Z,31.10
2022-08-03T16:17:07.234Z,31.10
2022-08-03T16:19:35.781Z,31.00
2022-08-03T16:22:03.879Z,31.00
2022-08-03T16:24:32.496Z,30.90
2022-08-03T16:27:02.125Z,30.90
2022-08-03T16:29:30.866Z,30.90
2022-08-03T16:31:58.654Z,30.90
2022-08-03T16:34:27.750Z,30.90
2022-08-03T16:36:55.828Z,30.90
2022-08-03T16:39:23.636Z,30.90
2022-08-03T16:41:54.061Z,30.90
2022-08-03T16:44:29.532Z,30.80
2022-08-03T16:46:57.331Z,30.80
2022-08-03T16:49:55.252Z,30.70
2022-08-03T16:52:14.215Z,30.60
2022-08-03T16:54:53.093Z,30.60
2022-08-03T16:57:56.611Z,30.50
2022-08-03T17:00:33.247Z,30.50
2022-08-03T17:03:04.299Z,30.50
2022-08-03T17:05:47.202Z,30.50
2022-08-03T17:08:26.282Z,30.50
2022-08-03T17:10:56.247Z,30.50
2022-08-03T17:13:38.770Z,30.50
2022-08-03T17:16:09.348Z,30.50
2022-08-03T17:18:42.235Z,30.50
2022-08-03T17:21:18.647Z,30.50
2022-08-03T17:24:12.562Z,30.40
2022-08-03T17:26:46.768Z,30.40
2022-08-03T17:29:22.894Z,30.40
2022-08-03T17:31:52.909Z,30.40
2022-08-03T17:34:26.477Z,30.30
2022-08-03T17:37:04.157Z,30.20
2022-08-03T17:39:59.238Z,30.10
2022-08-03T17:42:29.170Z,30.10
2022-08-03T17:44:58.613Z,30.00
2022-08-03T17:47:42.248Z,30.00
2022-08-03T17:50:24.676Z,29.90
2022-08-03T17:53:07.049Z,29.80
2022-08-03T17:55:58.959Z,29.80
2022-08-03T17:58:35.682Z,29.70
2022-08-03T18:02:00.219Z,29.70
2022-08-03T18:04:12.662Z,29.60
2022-08-03T18:06:56.112Z,29.50
2022-08-03T18:10:03.903Z,29.40
2022-08-03T18:12:25.954Z,29.40
2022-08-03T18:15:01.589Z,29.30
2022-08-03T18:17:55.427Z,29.20
2022-08-03T18:20:34.013Z,29.10
2022-08-03T18:23:08.450Z,29.00
2022-08-03T18:25:45.181Z,28.90
2022-08-03T18:28:18.917Z,28.90
2022-08-03T18:30:54.063Z,28.80
2022-08-03T18:34:20.330Z,28.70
2022-08-03T18:36:17.475Z,28.60
2022-08-03T18:38:47.460Z,28.50
2022-08-03T18:41:22.120Z,28.50
2022-08-03T18:44:08.543Z,28.40
2022-08-03T18:47:07.167Z,28.30
2022-08-03T18:49:53.918Z,28.20
2022-08-03T18:52:28.367Z,28.10
2022-08-03T18:55:03.824Z,28.00
2022-08-03T18:57:44.601Z,28.00
2022-08-03T19:00:23.921Z,27.80
2022-08-03T19:02:58.763Z,27.70
2022-08-03T19:05:53.709Z,27.70
2022-08-03T19:08:26.073Z,27.60
2022-08-03T19:11:01.961Z,27.50
2022-08-03T19:13:40.344Z,27.40
2022-08-03T19:16:20.935Z,27.30
2022-08-03T19:18:50.133Z,27.20
2022-08-03T19:21:18.334Z,27.10
2022-08-03T19:23:47.913Z,27.10
2022-08-03T19:26:30.480Z,26.90
2022-08-03T19:29:00.185Z,26.90
2022-08-03T19:31:35.026Z,26.80
2022-08-03T19:34:04.287Z,26.70
2022-08-03T19:36:40.489Z,26.70
2022-08-03T19:39:25.883Z,26.60
2022-08-03T19:42:06.276Z,26.60
2022-08-03T19:44:41.053Z,26.50
2022-08-03T19:47:16.755Z,26.40
2022-08-03T19:50:04.842Z,26.30
2022-08-03T19:52:36.140Z,26.30
2022-08-03T19:55:09.668Z,26.20
2022-08-03T19:57:43.414Z,26.10
2022-08-03T20:00:12.712Z,26.10
2022-08-03T20:02:43.178Z,26.00
2022-08-03T20:05:14.717Z,25.90
2022-08-03T20:07:47.735Z,25.90
2022-08-03T20:10:17.410Z,25.80
2022-08-03T20:12:46.587Z,25.70
2022-08-03T20:15:22.486Z,25.60
2022-08-03T20:18:01.103Z,25.60
2022-08-03T20:20:31.211Z,25.50
2022-08-03T20:23:02.023Z,25.50
2022-08-03T20:25:38.088Z,25.40
2022-08-03T20:28:13.763Z,25.30
2022-08-03T20:30:43.538Z,25.20
2022-08-03T20:33:18.673Z,25.20
2022-08-03T20:38:43.851Z,25.10
2022-08-03T20:41:15.469Z,25.10
2022-08-03T20:43:43.349Z,25.00
2022-08-03T20:46:29.055Z,25.00
2022-08-03T20:49:03.738Z,24.90
2022-08-03T20:51:49.910Z,24.90
2022-08-03T20:54:28.948Z,24.90
2022-08-03T20:56:59.269Z,24.90
2022-08-03T20:59:34.806Z,24.90
2022-08-03T21:02:19.621Z,24.80
2022-08-03T21:04:58.821Z,24.80
2022-08-03T21:08:04.256Z,24.80
2022-08-03T21:10:28.478Z,24.70
2022-08-03T21:13:12.958Z,25.20
2022-08-03T21:13:15.911Z,24.70
2022-08-03T21:16:06.470Z,24.70
2022-08-03T21:18:38.880Z,24.60
2022-08-03T21:21:11.035Z,24.60
2022-08-03T21:23:48.025Z,24.60
2022-08-03T21:26:17.999Z,24.50
2022-08-03T21:28:47.225Z,24.50
2022-08-03T21:31:23.689Z,24.50
2022-08-03T21:33:57.363Z,24.40
2022-08-03T21:36:28.474Z,24.40
2022-08-03T21:38:57.671Z,24.40
2022-08-03T21:41:27.267Z,24.40
2022-08-03T21:43:55.141Z,24.30
2022-08-03T21:46:23.535Z,24.30
2022-08-03T21:48:56.030Z,24.20
2022-08-03T21:51:27.134Z,24.20
2022-08-03T21:54:02.557Z,24.20
2022-08-03T21:56:41.913Z,24.20
2022-08-03T21:59:16.697Z,24.20
2022-08-03T22:01:49.197Z,24.10
2022-08-03T22:04:50.663Z,24.10
2022-08-03T22:07:12.745Z,24.10
2022-08-03T22:09:40.736Z,24.00
2022-08-03T22:12:23.794Z,24.00
2022-08-03T22:15:00.053Z,24.00
2022-08-03T22:17:55.331Z,24.00
2022-08-03T22:20:19.417Z,24.00
2022-08-03T22:22:56.061Z,23.90
2022-08-03T22:25:28.793Z,23.90
2022-08-03T22:27:58.728Z,23.90
2022-08-03T22:30:26.584Z,23.80
2022-08-03T22:32:56.168Z,23.90
2022-08-03T22:35:26.508Z,23.80
2022-08-03T22:37:58.143Z,23.80
2022-08-03T22:40:27.611Z,23.70
2022-08-03T22:42:55.828Z,23.70
2022-08-03T22:46:07.189Z,23.70
2022-08-03T22:48:12.305Z,23.70
2022-08-03T22:50:40.966Z,23.60
2022-08-03T22:53:11.003Z,23.60
2022-08-03T22:55:38.815Z,23.60
2022-08-03T22:58:06.589Z,23.50
2022-08-03T23:00:34.507Z,23.50
2022-08-03T23:03:07.175Z,23.50
2022-08-03T23:06:00.575Z,23.40
2022-08-03T23:08:27.226Z,23.40
2022-08-03T23:11:03.470Z,23.40
2022-08-03T23:13:32.988Z,23.40
2022-08-03T23:16:02.152Z,23.30
2022-08-03T23:18:35.412Z,23.30
2022-08-03T23:21:11.653Z,23.30
2022-08-03T23:23:45.044Z,23.30
2022-08-03T23:26:13.732Z,23.30
2022-08-03T23:28:46.084Z,23.20
2022-08-03T23:31:15.729Z,23.10
2022-08-03T23:33:46.024Z,23.10
2022-08-03T23:36:30.954Z,23.10
2022-08-03T23:39:03.135Z,23.10
2022-08-03T23:41:31.377Z,23.10
2022-08-03T23:44:01.747Z,23.00
2022-08-03T23:46:31.850Z,23.00
2022-08-03T23:49:00.683Z,22.90
2022-08-03T23:51:39.931Z,22.90
2022-08-03T23:54:19.243Z,22.90
2022-08-03T23:56:53.180Z,22.90
2022-08-03T23:59:33.563Z,22.90
